createdAt,value
2018-03-02T00:00:16.017Z,45.00
2018-03-02T00:01:16.045Z,41.70
2018-03-02T00:02:16.073Z,47.20
2018-03-02T00:03:16.098Z,44.40
2018-03-02T00:04:16.124Z,47.00
2018-03-02T00:05:16.151Z,45.90
2018-03-02T00:06:16.171Z,46.00
2018-03-02T00:07:16.199Z,45.70
2018-03-02T00:08:16.223Z,47.40
2018-03-02T00:09:16.257Z,46.00
2018-03-02T00:10:16.275Z,48.30
2018-03-02T00:11:16.301Z,48.00
2018-03-02T00:12:16.328Z,51.00
2018-03-02T00:13:16.352Z,44.40
2018-03-02T00:14:16.378Z,45.30
2018-03-02T00:15:16.406Z,43.50
2018-03-02T00:16:16.432Z,45.70
2018-03-02T00:17:16.471Z,43.70
2018-03-02T00:18:16.484Z,44.40
2018-03-02T00:19:16.505Z,46.60
2018-03-02T00:20:16.529Z,46.80
2018-03-02T00:21:16.561Z,47.80
2018-03-02T00:22:16.583Z,45.20
2018-03-02T00:23:16.608Z,44.40
2018-03-02T00:24:16.748Z,43.30
2018-03-02T00:25:16.663Z,47.50
2018-03-02T00:26:16.687Z,47.90
2018-03-02T00:27:16.710Z,49.00
2018-03-02T00:28:16.735Z,51.30
2018-03-02T00:29:16.759Z,45.00
2018-03-02T00:30:16.790Z,48.30
2018-03-02T00:31:16.813Z,43.60
2018-03-02T00:32:16.842Z,48.50
2018-03-02T00:33:16.863Z,45.40
2018-03-02T00:34:16.944Z,43.20
2018-03-02T00:35:16.936Z,48.30
2018-03-02T00:36:16.942Z,44.00
2018-03-02T00:37:16.966Z,43.70
2018-03-02T00:38:16.993Z,48.90
2018-03-02T00:39:17.021Z,46.50
2018-03-02T00:40:17.044Z,47.60
2018-03-02T00:41:17.071Z,47.60
2018-03-02T00:42:17.096Z,46.80
2018-03-02T00:43:17.123Z,47.60
2018-03-02T00:44:17.149Z,50.10
2018-03-02T00:45:17.172Z,48.20
2018-03-02T00:46:17.198Z,48.10
2018-03-02T00:47:17.225Z,51.30
2018-03-02T00:48:17.256Z,48.80
2018-03-02T00:49:17.276Z,55.90
2018-03-02T00:50:17.305Z,49.20
2018-03-02T00:51:17.334Z,50.80
2018-03-02T00:52:17.353Z,48.90
2018-03-02T00:53:17.376Z,46.80
2018-03-02T00:54:17.421Z,49.20
2018-03-02T00:55:17.429Z,48.80
2018-03-02T00:56:17.457Z,46.80
2018-03-02T00:57:17.484Z,48.10
2018-03-02T00:58:17.530Z,49.30
2018-03-02T00:59:17.536Z,47.30
2018-03-02T01:00:17.558Z,49.00
2018-03-02T01:01:17.585Z,43.60
2018-03-02T01:02:17.613Z,45.80
2018-03-02T01:03:17.641Z,45.90
2018-03-02T01:04:17.659Z,44.70
2018-03-02T01:05:17.699Z,50.50
2018-03-02T01:06:17.714Z,50.70
2018-03-02T01:07:17.738Z,46.30
2018-03-02T01:08:17.765Z,48.20
2018-03-02T01:09:17.789Z,48.10
2018-03-02T01:10:17.815Z,46.70
2018-03-02T01:11:17.842Z,47.60
2018-03-02T01:12:17.865Z,47.50
2018-03-02T01:13:17.890Z,49.90
2018-03-02T01:14:17.916Z,47.60
2018-03-02T01:15:17.943Z,49.00
2018-03-02T01:16:17.966Z,53.70
2018-03-02T01:17:18.000Z,46.60
2018-03-02T01:18:18.020Z,47.00
2018-03-02T01:19:18.047Z,50.40
2018-03-02T01:20:18.097Z,51.10
2018-03-02T01:21:18.098Z,51.40
2018-03-02T01:22:18.125Z,50.80
2018-03-02T01:23:18.147Z,50.10
2018-03-02T01:24:18.170Z,50.40
2018-03-02T01:25:18.200Z,46.40
2018-03-02T01:26:18.222Z,51.10
2018-03-02T01:27:18.250Z,46.20
2018-03-02T01:28:18.273Z,51.10
2018-03-02T01:29:18.301Z,50.20
2018-03-02T01:30:18.343Z,48.90
2018-03-02T01:31:18.352Z,51.70
2018-03-02T01:32:18.388Z,48.90
2018-03-02T01:33:18.401Z,49.60
2018-03-02T01:34:18.486Z,55.00
2018-03-02T01:35:18.455Z,53.60
2018-03-02T01:36:18.481Z,48.50
2018-03-02T01:37:18.524Z,49.10
2018-03-02T01:38:18.533Z,51.70
2018-03-02T01:39:18.555Z,47.60
2018-03-02T01:40:18.581Z,51.60
2018-03-02T01:41:18.607Z,50.50
2018-03-02T01:42:18.632Z,49.40
2018-03-02T01:43:18.667Z,51.30
2018-03-02T01:44:18.703Z,51.20
2018-03-02T01:45:18.711Z,51.60
2018-03-02T01:46:18.733Z,51.80
2018-03-02T01:47:18.761Z,50.90
2018-03-02T01:48:18.787Z,47.10
2018-03-02T01:49:18.815Z,52.60
2018-03-02T01:50:18.835Z,51.50
2018-03-02T01:51:18.861Z,50.60
2018-03-02T01:52:18.897Z,50.60
2018-03-02T01:53:18.911Z,49.30
2018-03-02T01:54:18.937Z,52.40
2018-03-02T01:55:18.964Z,50.40
2018-03-02T01:56:18.997Z,46.60
2018-03-02T01:57:19.014Z,51.00
2018-03-02T01:58:19.041Z,52.30
2018-03-02T01:59:19.068Z,54.70
2018-03-02T02:00:19.105Z,54.30
2018-03-02T02:01:19.114Z,50.90
2018-03-02T02:02:19.142Z,53.30
2018-03-02T02:03:19.167Z,51.40
2018-03-02T02:04:19.193Z,51.10
2018-03-02T02:05:19.217Z,50.60
2018-03-02T02:06:19.335Z,51.50
2018-03-02T02:07:19.280Z,52.50
2018-03-02T02:08:19.306Z,53.10
2018-03-02T02:09:19.318Z,49.50
2018-03-02T02:10:19.346Z,53.20
2018-03-02T02:11:19.373Z,52.10
2018-03-02T02:12:19.395Z,51.40
2018-03-02T02:13:19.424Z,53.80
2018-03-02T02:14:19.446Z,52.90
2018-03-02T02:15:19.475Z,53.80
2018-03-02T02:16:19.498Z,51.10
2018-03-02T02:17:19.525Z,52.00
2018-03-02T02:18:19.554Z,57.10
2018-03-02T02:19:19.574Z,55.30
2018-03-02T02:20:19.598Z,51.80
2018-03-02T02:21:19.626Z,55.00
2018-03-02T02:22:19.651Z,52.10
2018-03-02T02:23:19.689Z,55.10
2018-03-02T02:24:19.706Z,50.60
2018-03-02T02:25:19.725Z,52.50
2018-03-02T02:26:19.756Z,48.90
2018-03-02T02:27:19.779Z,54.20
2018-03-02T02:28:19.806Z,52.40
2018-03-02T02:29:19.828Z,56.30
2018-03-02T02:30:19.858Z,50.70
2018-03-02T02:31:19.879Z,57.10
2018-03-02T02:32:19.904Z,51.20
2018-03-02T02:33:19.929Z,51.20
2018-03-02T02:34:19.963Z,54.40
2018-03-02T02:35:19.981Z,52.20
2018-03-02T02:36:20.009Z,53.10
2018-03-02T02:37:20.032Z,53.40
2018-03-02T02:38:20.068Z,52.60
2018-03-02T02:39:20.081Z,51.50
2018-03-02T02:40:20.188Z,54.90
2018-03-02T02:41:20.136Z,54.30
2018-03-02T02:42:20.158Z,52.60
2018-03-02T02:43:20.187Z,53.50
2018-03-02T02:44:20.207Z,53.50
2018-03-02T02:45:20.239Z,50.30
2018-03-02T02:46:20.261Z,49.20
2018-03-02T02:47:20.288Z,47.60
2018-03-02T02:48:20.311Z,53.00
2018-03-02T02:49:20.366Z,52.30
2018-03-02T02:50:20.363Z,55.00
2018-03-02T02:51:20.387Z,51.50
2018-03-02T02:52:20.413Z,51.90
2018-03-02T02:53:20.443Z,57.00
2018-03-02T02:54:20.464Z,52.10
2018-03-02T02:55:20.490Z,57.30
2018-03-02T02:56:20.517Z,54.30
2018-03-02T02:57:20.539Z,54.60
2018-03-02T02:58:20.565Z,55.20
2018-03-02T02:59:20.591Z,55.80
2018-03-02T03:00:20.616Z,51.00
2018-03-02T03:01:20.639Z,54.10
2018-03-02T03:02:20.723Z,55.10
2018-03-02T03:03:20.690Z,59.70
2018-03-02T03:04:20.716Z,58.00
2018-03-02T03:05:20.743Z,54.90
2018-03-02T03:06:20.779Z,54.20
2018-03-02T03:07:20.797Z,54.50
2018-03-02T03:08:20.821Z,51.40
2018-03-02T03:09:20.844Z,52.00
2018-03-02T03:10:20.873Z,57.60
2018-03-02T03:11:20.895Z,55.20
2018-03-02T03:12:20.921Z,54.80
2018-03-02T03:13:20.943Z,56.80
2018-03-02T03:14:20.972Z,55.30
2018-03-02T03:15:20.998Z,53.70
2018-03-02T03:16:21.023Z,54.00
2018-03-02T03:17:21.048Z,55.50
2018-03-02T03:18:21.071Z,59.90
2018-03-02T03:19:21.168Z,56.80
2018-03-02T03:20:21.122Z,54.80
2018-03-02T03:21:21.151Z,58.80
2018-03-02T03:22:21.173Z,57.60
2018-03-02T03:23:21.196Z,56.60
2018-03-02T03:24:21.223Z,52.60
2018-03-02T03:25:21.248Z,56.70
2018-03-02T03:26:21.273Z,54.80
2018-03-02T03:27:21.304Z,56.80
2018-03-02T03:28:21.323Z,56.50
2018-03-02T03:29:21.354Z,59.50
2018-03-02T03:30:21.374Z,56.10
2018-03-02T03:31:21.403Z,57.20
2018-03-02T03:32:21.423Z,58.10
2018-03-02T03:33:21.453Z,61.30
2018-03-02T03:34:21.473Z,58.10
2018-03-02T03:35:21.504Z,59.50
2018-03-02T03:36:21.523Z,61.70
2018-03-02T03:37:21.591Z,58.90
2018-03-02T03:38:21.578Z,54.20
2018-03-02T03:39:21.611Z,55.00
2018-03-02T03:40:21.625Z,59.90
2018-03-02T03:41:21.662Z,55.70
2018-03-02T03:42:21.677Z,57.00
2018-03-02T03:43:21.704Z,59.00
2018-03-02T03:44:21.738Z,60.90
2018-03-02T03:45:21.764Z,58.60
2018-03-02T03:46:21.779Z,58.10
2018-03-02T03:47:21.805Z,60.80
2018-03-02T03:48:21.842Z,57.00
2018-03-02T03:49:21.855Z,55.30
2018-03-02T03:50:21.879Z,60.60
2018-03-02T03:51:21.905Z,58.30
2018-03-02T03:52:21.929Z,57.70
2018-03-02T03:53:21.957Z,57.20
2018-03-02T03:54:21.982Z,55.80
2018-03-02T03:55:22.007Z,58.10
2018-03-02T03:56:22.029Z,58.70
2018-03-02T03:57:22.071Z,57.80
2018-03-02T03:58:22.110Z,56.70
2018-03-02T03:59:22.124Z,57.40
2018-03-02T04:00:22.132Z,61.10
2018-03-02T04:01:22.159Z,55.50
2018-03-02T04:02:22.189Z,61.70
2018-03-02T04:03:22.208Z,58.90
2018-03-02T04:04:22.234Z,59.40
2018-03-02T04:05:22.340Z,60.20
2018-03-02T04:06:22.288Z,62.80
2018-03-02T04:07:22.308Z,57.90
2018-03-02T04:08:22.334Z,59.10
2018-03-02T04:09:22.359Z,54.50
2018-03-02T04:10:22.385Z,57.20
2018-03-02T04:11:22.409Z,62.60
2018-03-02T04:12:22.445Z,63.20
2018-03-02T04:13:22.463Z,57.20
2018-03-02T04:14:22.485Z,62.10
2018-03-02T04:15:22.618Z,65.70
2018-03-02T04:16:22.538Z,58.00
2018-03-02T04:17:22.560Z,59.20
2018-03-02T04:18:22.589Z,57.40
2018-03-02T04:19:22.612Z,62.00
2018-03-02T04:20:22.640Z,60.30
2018-03-02T04:21:22.662Z,58.20
2018-03-02T04:22:22.690Z,54.10
2018-03-02T04:23:22.741Z,61.10
2018-03-02T04:24:22.740Z,56.30
2018-03-02T04:25:22.763Z,58.20
2018-03-02T04:26:22.790Z,57.40
2018-03-02T04:27:22.812Z,61.70
2018-03-02T04:28:22.840Z,64.10
2018-03-02T04:29:22.866Z,58.20
2018-03-02T04:30:22.890Z,61.60
2018-03-02T04:31:22.924Z,63.20
2018-03-02T04:32:22.941Z,60.20
2018-03-02T04:33:22.965Z,61.00
2018-03-02T04:34:22.991Z,59.70
2018-03-02T04:35:23.021Z,60.90
2018-03-02T04:36:23.047Z,63.40
2018-03-02T04:37:23.068Z,57.10
2018-03-02T04:38:23.095Z,63.90
2018-03-02T04:39:23.121Z,61.50
2018-03-02T04:40:23.143Z,62.00
2018-03-02T04:41:23.166Z,60.30
2018-03-02T04:42:23.207Z,64.50
2018-03-02T04:43:23.222Z,59.90
2018-03-02T04:44:23.256Z,60.70
2018-03-02T04:45:23.273Z,61.90
2018-03-02T04:46:23.296Z,59.10
2018-03-02T04:47:23.324Z,57.90
2018-03-02T04:48:23.347Z,58.60
2018-03-02T04:49:23.373Z,62.40
2018-03-02T04:50:23.395Z,60.10
2018-03-02T04:51:23.424Z,61.10
2018-03-02T04:52:23.451Z,60.00
2018-03-02T04:53:23.474Z,60.40
2018-03-02T04:54:23.504Z,60.40
2018-03-02T04:55:23.523Z,62.30
2018-03-02T04:56:23.548Z,56.80
2018-03-02T04:57:23.574Z,61.50
2018-03-02T04:58:23.601Z,62.50
2018-03-02T04:59:23.632Z,58.40
2018-03-02T05:00:23.648Z,62.80
2018-03-02T05:01:23.780Z,64.40
2018-03-02T05:02:23.699Z,60.00
2018-03-02T05:03:23.725Z,60.50
2018-03-02T05:04:23.750Z,62.90
2018-03-02T05:05:23.775Z,62.50
2018-03-02T05:06:23.801Z,59.40
2018-03-02T05:07:23.827Z,64.90
2018-03-02T05:08:23.851Z,63.30
2018-03-02T05:09:23.879Z,59.80
2018-03-02T05:10:23.908Z,66.80
2018-03-02T05:11:23.929Z,59.60
2018-03-02T05:12:23.956Z,61.00
2018-03-02T05:13:23.978Z,60.00
2018-03-02T05:14:24.010Z,61.80
2018-03-02T05:15:24.031Z,58.40
2018-03-02T05:16:24.054Z,59.50
2018-03-02T05:17:24.081Z,62.00
2018-03-02T05:18:24.133Z,60.20
2018-03-02T05:19:24.135Z,59.60
2018-03-02T05:20:24.157Z,60.50
2018-03-02T05:21:24.191Z,63.30
2018-03-02T05:22:24.210Z,59.50
2018-03-02T05:23:24.238Z,61.00
2018-03-02T05:24:24.262Z,60.10
2018-03-02T05:25:24.314Z,59.60
2018-03-02T05:26:24.310Z,64.60
2018-03-02T05:27:24.338Z,63.30
2018-03-02T05:28:24.362Z,57.50
2018-03-02T05:29:24.389Z,63.20
2018-03-02T05:30:24.434Z,66.00
2018-03-02T05:31:24.440Z,63.80
2018-03-02T05:32:24.464Z,61.60
2018-03-02T05:33:24.492Z,60.50
2018-03-02T05:34:24.527Z,63.80
2018-03-02T05:35:24.542Z,61.60
2018-03-02T05:36:24.568Z,60.60
2018-03-02T05:37:24.590Z,63.60
2018-03-02T05:38:24.620Z,63.90
2018-03-02T05:39:24.644Z,58.10
2018-03-02T05:40:24.673Z,57.30
2018-03-02T05:41:24.695Z,62.50
2018-03-02T05:42:24.719Z,59.20
2018-03-02T05:43:24.746Z,62.70
2018-03-02T05:44:24.784Z,58.50
2018-03-02T05:45:24.793Z,62.40
2018-03-02T05:46:24.821Z,66.00
2018-03-02T05:47:24.916Z,59.20
2018-03-02T05:48:24.872Z,63.50
2018-03-02T05:49:24.899Z,58.80
2018-03-02T05:50:24.920Z,59.10
2018-03-02T05:51:24.945Z,55.60
2018-03-02T05:52:24.971Z,64.30
2018-03-02T05:53:24.995Z,59.20
2018-03-02T05:54:25.026Z,61.60
2018-03-02T05:55:25.051Z,67.60
2018-03-02T05:56:25.074Z,63.40
2018-03-02T05:57:25.117Z,58.10
2018-03-02T05:58:25.125Z,59.20
2018-03-02T05:59:25.154Z,59.20
2018-03-02T06:00:25.175Z,62.80
2018-03-02T06:01:25.205Z,62.20
2018-03-02T06:02:25.225Z,64.20
2018-03-02T06:03:25.254Z,59.60
2018-03-02T06:04:25.369Z,61.90
2018-03-02T06:05:25.304Z,61.30
2018-03-02T06:06:25.326Z,66.80
2018-03-02T06:07:25.354Z,66.00
2018-03-02T06:08:25.379Z,57.90
2018-03-02T06:09:25.403Z,67.10
2018-03-02T06:10:25.428Z,62.40
2018-03-02T06:11:25.456Z,64.50
2018-03-02T06:12:25.480Z,65.30
2018-03-02T06:13:25.504Z,62.90
2018-03-02T06:14:25.564Z,62.80
2018-03-02T06:15:25.558Z,67.50
2018-03-02T06:16:25.595Z,62.40
2018-03-02T06:17:25.604Z,66.40
2018-03-02T06:18:25.631Z,62.40
2018-03-02T06:19:25.664Z,62.30
2018-03-02T06:20:25.682Z,62.80
2018-03-02T06:21:25.707Z,65.20
2018-03-02T06:22:25.744Z,67.20
2018-03-02T06:23:25.761Z,66.20
2018-03-02T06:24:25.787Z,64.30
2018-03-02T06:25:25.809Z,71.40
2018-03-02T06:26:25.835Z,67.90
2018-03-02T06:27:25.860Z,61.50
2018-03-02T06:28:25.886Z,64.50
2018-03-02T06:29:25.914Z,62.60
2018-03-02T06:30:25.936Z,64.40
2018-03-02T06:31:25.962Z,62.70
2018-03-02T06:32:25.986Z,65.60
2018-03-02T06:33:26.121Z,61.80
2018-03-02T06:34:26.037Z,62.50
2018-03-02T06:35:26.062Z,66.40
2018-03-02T06:36:26.086Z,68.90
2018-03-02T06:37:26.117Z,52.20
2018-03-02T06:38:26.136Z,57.80
2018-03-02T06:39:26.163Z,65.00
2018-03-02T06:40:26.186Z,62.30
2018-03-02T06:41:26.212Z,61.90
2018-03-02T06:42:26.240Z,66.60
2018-03-02T06:43:26.297Z,63.10
2018-03-02T06:44:26.302Z,59.70
2018-03-02T06:45:26.313Z,67.30
2018-03-02T06:46:26.339Z,64.00
2018-03-02T06:47:26.369Z,62.40
2018-03-02T06:48:26.394Z,65.50
2018-03-02T06:49:26.416Z,64.90
2018-03-02T06:50:26.440Z,69.10
2018-03-02T06:51:26.468Z,64.40
2018-03-02T06:52:26.493Z,64.20
2018-03-02T06:53:26.520Z,63.40
2018-03-02T06:54:26.543Z,66.40
2018-03-02T06:55:26.569Z,59.20
2018-03-02T06:56:26.598Z,65.60
2018-03-02T06:57:26.621Z,68.60
2018-03-02T06:58:26.644Z,64.50
2018-03-02T06:59:26.678Z,66.20
2018-03-02T07:00:26.759Z,63.90
2018-03-02T07:01:26.724Z,64.80
2018-03-02T07:02:26.750Z,67.20
2018-03-02T07:03:26.774Z,65.80
2018-03-02T07:04:26.799Z,63.40
2018-03-02T07:05:26.865Z,63.70
2018-03-02T07:06:26.851Z,67.10
2018-03-02T07:07:26.874Z,64.60
2018-03-02T07:08:26.901Z,63.40
2018-03-02T07:09:26.931Z,67.00
2018-03-02T07:10:26.966Z,63.20
2018-03-02T07:11:26.976Z,65.80
2018-03-02T07:12:27.002Z,68.50
2018-03-02T07:13:27.025Z,69.20
2018-03-02T07:14:27.053Z,63.80
2018-03-02T07:15:27.090Z,61.60
2018-03-02T07:16:27.104Z,60.90
2018-03-02T07:17:27.132Z,60.60
2018-03-02T07:18:27.158Z,65.60
2018-03-02T07:19:27.182Z,63.60
2018-03-02T07:20:27.205Z,66.10
2018-03-02T07:21:27.244Z,63.20
2018-03-02T07:22:27.268Z,60.50
2018-03-02T07:23:27.289Z,62.40
2018-03-02T07:24:27.313Z,66.40
2018-03-02T07:25:27.335Z,64.60
2018-03-02T07:26:27.364Z,68.60
2018-03-02T07:27:27.393Z,64.50
2018-03-02T07:28:27.421Z,64.00
2018-03-02T07:29:27.476Z,61.50
2018-03-02T07:30:27.464Z,65.10
2018-03-02T07:31:27.489Z,63.10
2018-03-02T07:32:27.516Z,66.30
2018-03-02T07:33:27.550Z,66.60
2018-03-02T07:34:27.566Z,61.50
2018-03-02T07:35:27.594Z,61.10
2018-03-02T07:36:27.617Z,68.60
2018-03-02T07:37:27.663Z,66.70
2018-03-02T07:38:27.671Z,69.90
2018-03-02T07:39:27.747Z,62.20
2018-03-02T07:40:27.729Z,62.70
2018-03-02T07:41:27.745Z,63.90
2018-03-02T07:42:27.776Z,65.80
2018-03-02T07:43:27.801Z,66.00
2018-03-02T07:44:27.823Z,68.00
2018-03-02T07:45:27.847Z,63.20
2018-03-02T07:46:27.931Z,66.90
2018-03-02T07:47:27.904Z,64.40
2018-03-02T07:48:27.942Z,63.00
2018-03-02T07:49:27.951Z,63.40
2018-03-02T07:50:27.988Z,65.40
2018-03-02T07:51:28.007Z,67.30
2018-03-02T07:52:28.029Z,71.50
2018-03-02T07:53:28.055Z,68.90
2018-03-02T07:54:28.082Z,61.60
2018-03-02T07:55:28.107Z,64.50
2018-03-02T07:56:28.130Z,70.00
2018-03-02T07:57:28.163Z,66.00
2018-03-02T07:58:28.242Z,65.30
2018-03-02T07:59:28.207Z,63.80
2018-03-02T08:00:28.233Z,61.80
2018-03-02T08:01:28.257Z,69.00
2018-03-02T08:02:28.296Z,66.80
2018-03-02T08:03:28.312Z,64.20
2018-03-02T08:04:28.386Z,65.30
2018-03-02T08:05:28.362Z,67.90
2018-03-02T08:06:28.394Z,61.70
2018-03-02T08:07:28.417Z,62.80
2018-03-02T08:08:28.450Z,64.50
2018-03-02T08:09:28.469Z,63.80
2018-03-02T08:10:28.492Z,61.10
2018-03-02T08:11:28.518Z,65.10
2018-03-02T08:12:28.545Z,66.60
2018-03-02T08:13:28.568Z,59.40
2018-03-02T08:14:28.593Z,66.20
2018-03-02T08:15:28.627Z,62.40
2018-03-02T08:16:28.649Z,62.70
2018-03-02T08:17:28.671Z,63.70
2018-03-02T08:18:28.700Z,68.50
2018-03-02T08:19:28.729Z,70.40
2018-03-02T08:20:28.758Z,61.00
2018-03-02T08:21:28.775Z,62.80
2018-03-02T08:22:28.808Z,63.10
2018-03-02T08:23:28.829Z,67.80
2018-03-02T08:24:28.851Z,62.50
2018-03-02T08:25:28.908Z,66.10
2018-03-02T08:26:28.904Z,66.20
2018-03-02T08:27:28.931Z,59.30
2018-03-02T08:28:28.966Z,63.80
2018-03-02T08:29:28.980Z,63.80
2018-03-02T08:30:29.011Z,64.80
2018-03-02T08:31:29.043Z,67.00
2018-03-02T08:32:29.063Z,66.10
2018-03-02T08:33:29.084Z,58.90
2018-03-02T08:34:29.112Z,62.90
2018-03-02T08:35:29.139Z,67.30
2018-03-02T08:36:29.161Z,61.60
2018-03-02T08:37:29.187Z,67.40
2018-03-02T08:38:29.216Z,65.10
2018-03-02T08:39:29.242Z,68.20
2018-03-02T08:40:29.268Z,63.60
2018-03-02T08:41:29.299Z,64.60
2018-03-02T08:42:29.428Z,63.70
2018-03-02T08:43:29.345Z,63.50
2018-03-02T08:44:29.373Z,63.80
2018-03-02T08:45:29.395Z,65.00
2018-03-02T08:46:29.423Z,63.40
2018-03-02T08:47:29.450Z,62.80
2018-03-02T08:48:29.474Z,61.50
2018-03-02T08:49:29.506Z,61.00
2018-03-02T08:50:29.526Z,63.50
2018-03-02T08:51:29.554Z,60.90
2018-03-02T08:52:29.586Z,64.10
2018-03-02T08:53:29.604Z,60.70
2018-03-02T08:54:29.694Z,63.80
2018-03-02T08:55:29.657Z,61.90
2018-03-02T08:56:29.683Z,60.90
2018-03-02T08:57:29.707Z,66.10
2018-03-02T08:58:29.735Z,60.90
2018-03-02T08:59:29.760Z,62.90
2018-03-02T09:00:29.787Z,59.50
2018-03-02T09:01:29.815Z,63.80
2018-03-02T09:02:29.837Z,66.50
2018-03-02T09:03:29.864Z,60.60
2018-03-02T09:04:29.891Z,63.20
2018-03-02T09:05:29.918Z,58.30
2018-03-02T09:06:29.944Z,59.20
2018-03-02T09:07:29.970Z,58.40
2018-03-02T09:08:29.995Z,60.80
2018-03-02T09:09:30.023Z,57.50
2018-03-02T09:10:30.047Z,57.40
2018-03-02T09:11:30.099Z,62.50
2018-03-02T09:12:30.099Z,59.30
2018-03-02T09:13:30.128Z,57.90
2018-03-02T09:14:30.150Z,57.20
2018-03-02T09:15:30.181Z,59.50
2018-03-02T09:16:30.207Z,60.70
2018-03-02T09:17:30.228Z,63.00
2018-03-02T09:18:30.258Z,59.00
2018-03-02T09:19:30.282Z,61.00
2018-03-02T09:20:30.307Z,59.60
2018-03-02T09:21:30.332Z,57.00
2018-03-02T09:22:30.362Z,66.90
2018-03-02T09:23:30.388Z,64.30
2018-03-02T09:24:30.418Z,59.10
2018-03-02T09:25:30.440Z,60.30
2018-03-02T09:26:30.463Z,63.40
2018-03-02T09:27:30.493Z,68.80
2018-03-02T09:28:30.530Z,60.40
2018-03-02T09:29:30.544Z,60.70
2018-03-02T09:30:30.569Z,59.80
2018-03-02T09:31:30.598Z,62.00
2018-03-02T09:32:30.619Z,62.90
2018-03-02T09:33:30.651Z,61.30
2018-03-02T09:34:30.674Z,65.50
2018-03-02T09:35:30.701Z,58.50
2018-03-02T09:36:30.734Z,65.70
2018-03-02T09:37:30.752Z,62.00
2018-03-02T09:38:30.780Z,63.20
2018-03-02T09:39:30.804Z,65.40
2018-03-02T09:40:30.831Z,58.90
2018-03-02T09:41:30.861Z,63.30
2018-03-02T09:42:30.883Z,60.40
2018-03-02T09:43:30.909Z,67.00
2018-03-02T09:44:30.935Z,66.80
2018-03-02T09:45:30.964Z,60.00
2018-03-02T09:46:30.990Z,62.70
2018-03-02T09:47:31.016Z,61.80
2018-03-02T09:48:31.040Z,62.30
2018-03-02T09:49:31.068Z,62.90
2018-03-02T09:50:31.093Z,63.00
2018-03-02T09:51:31.121Z,64.80
2018-03-02T09:52:31.146Z,62.00
2018-03-02T09:53:31.173Z,63.30
2018-03-02T09:54:31.201Z,64.30
2018-03-02T09:55:31.231Z,59.50
2018-03-02T09:56:31.251Z,63.80
2018-03-02T09:57:31.324Z,60.90
2018-03-02T09:58:31.308Z,63.10
2018-03-02T09:59:31.331Z,60.40
2018-03-02T10:00:31.363Z,63.50
2018-03-02T10:01:31.390Z,60.00
2018-03-02T10:02:31.412Z,62.60
2018-03-02T10:03:31.443Z,58.70
2018-03-02T10:04:31.491Z,62.70
2018-03-02T10:05:31.500Z,66.30
2018-03-02T10:06:31.518Z,61.10
2018-03-02T10:07:31.548Z,62.50
2018-03-02T10:08:31.572Z,60.20
2018-03-02T10:09:31.598Z,58.70
2018-03-02T10:10:31.625Z,56.90
2018-03-02T10:11:31.674Z,58.90
2018-03-02T10:12:31.682Z,57.30
2018-03-02T10:13:31.707Z,57.50
2018-03-02T10:14:31.834Z,51.60
2018-03-02T10:15:31.758Z,55.70
2018-03-02T10:16:31.787Z,57.50
2018-03-02T10:17:31.815Z,59.00
2018-03-02T10:18:31.844Z,57.80
2018-03-02T10:19:31.866Z,63.40
2018-03-02T10:20:31.902Z,60.70
2018-03-02T10:21:31.953Z,59.80
2018-03-02T10:22:31.947Z,59.80
2018-03-02T10:23:31.975Z,57.50
2018-03-02T10:24:32.001Z,60.30
2018-03-02T10:25:32.027Z,54.90
2018-03-02T10:26:32.055Z,66.50
2018-03-02T10:27:32.088Z,60.70
2018-03-02T10:28:32.106Z,54.90
2018-03-02T10:29:32.135Z,59.80
2018-03-02T10:30:32.158Z,54.10
2018-03-02T10:31:32.209Z,57.70
2018-03-02T10:32:32.215Z,55.00
2018-03-02T10:33:32.242Z,56.70
2018-03-02T10:34:32.269Z,60.20
2018-03-02T10:35:32.311Z,55.10
2018-03-02T10:36:32.320Z,55.10
2018-03-02T10:37:32.346Z,60.00
2018-03-02T10:38:32.382Z,59.40
2018-03-02T10:39:32.399Z,60.10
2018-03-02T10:40:32.427Z,59.50
2018-03-02T10:41:32.485Z,58.00
2018-03-02T10:42:32.480Z,59.60
2018-03-02T10:43:32.585Z,57.40
2018-03-02T10:44:32.532Z,60.20
2018-03-02T10:45:32.559Z,53.70
2018-03-02T10:46:32.589Z,60.80
2018-03-02T10:47:32.614Z,61.80
2018-03-02T10:48:32.650Z,58.20
2018-03-02T10:49:32.670Z,55.20
2018-03-02T10:50:32.695Z,62.60
2018-03-02T10:51:32.722Z,60.30
2018-03-02T10:52:32.749Z,57.20
2018-03-02T10:53:32.826Z,55.20
2018-03-02T10:54:32.803Z,58.40
2018-03-02T10:55:32.830Z,58.10
2018-03-02T10:56:32.857Z,57.10
2018-03-02T10:57:32.883Z,60.40
2018-03-02T10:58:32.911Z,56.90
2018-03-02T10:59:32.935Z,60.60
2018-03-02T11:00:33.052Z,60.00
2018-03-02T11:01:32.989Z,57.90
2018-03-02T11:02:33.015Z,60.00
2018-03-02T11:03:33.043Z,56.60
2018-03-02T11:04:33.070Z,60.80
2018-03-02T11:05:33.103Z,56.20
2018-03-02T11:06:33.123Z,61.30
2018-03-02T11:07:33.153Z,58.00
2018-03-02T11:08:33.181Z,56.60
2018-03-02T11:09:33.205Z,59.20
2018-03-02T11:10:33.231Z,60.70
2018-03-02T11:11:33.260Z,63.60
2018-03-02T11:12:33.285Z,62.60
2018-03-02T11:13:33.311Z,55.90
2018-03-02T11:14:33.341Z,58.20
2018-03-02T11:15:33.367Z,60.70
2018-03-02T11:16:33.391Z,61.60
2018-03-02T11:17:33.467Z,59.30
2018-03-02T11:18:33.445Z,58.30
2018-03-02T11:19:33.472Z,60.10
2018-03-02T11:20:33.508Z,61.00
2018-03-02T11:21:33.526Z,61.60
2018-03-02T11:22:33.552Z,58.20
2018-03-02T11:23:33.582Z,58.40
2018-03-02T11:24:33.608Z,57.90
2018-03-02T11:25:33.648Z,52.50
2018-03-02T11:26:33.662Z,57.30
2018-03-02T11:27:33.687Z,55.90
2018-03-02T11:28:33.714Z,57.70
2018-03-02T11:29:33.776Z,60.40
2018-03-02T11:30:33.772Z,60.50
2018-03-02T11:31:33.796Z,63.70
2018-03-02T11:32:33.825Z,58.20
2018-03-02T11:33:33.849Z,57.30
2018-03-02T11:34:33.881Z,59.30
2018-03-02T11:35:33.962Z,54.30
2018-03-02T11:36:33.933Z,57.40
2018-03-02T11:37:33.960Z,51.40
2018-03-02T11:38:33.995Z,59.40
2018-03-02T11:39:34.014Z,55.60
2018-03-02T11:40:34.040Z,57.60
2018-03-02T11:41:34.068Z,59.80
2018-03-02T11:42:34.099Z,60.30
2018-03-02T11:43:34.129Z,58.90
2018-03-02T11:44:34.151Z,62.60
2018-03-02T11:45:34.183Z,60.90
2018-03-02T11:46:34.206Z,57.20
2018-03-02T11:47:34.231Z,58.70
2018-03-02T11:48:34.258Z,60.80
2018-03-02T11:49:34.300Z,60.60
2018-03-02T11:50:34.312Z,58.40
2018-03-02T11:51:34.341Z,61.10
2018-03-02T11:52:34.416Z,56.70
2018-03-02T11:53:34.472Z,57.60
2018-03-02T11:54:34.420Z,61.00
2018-03-02T11:55:34.450Z,60.40
2018-03-02T11:56:34.473Z,57.50
2018-03-02T11:57:34.501Z,58.00
2018-03-02T11:58:34.529Z,58.50
2018-03-02T11:59:34.558Z,60.30
2018-03-02T12:00:34.584Z,52.80
2018-03-02T12:01:34.610Z,61.90
2018-03-02T12:02:34.638Z,57.90
2018-03-02T12:03:34.670Z,60.20
2018-03-02T12:04:34.698Z,60.50
2018-03-02T12:05:34.718Z,59.40
2018-03-02T12:06:34.747Z,59.10
2018-03-02T12:07:34.773Z,59.50
2018-03-02T12:08:34.801Z,57.00
2018-03-02T12:09:34.836Z,57.60
2018-03-02T12:10:34.942Z,61.00
2018-03-02T12:11:34.882Z,61.20
2018-03-02T12:12:34.908Z,63.30
2018-03-02T12:13:34.938Z,60.60
2018-03-02T12:14:34.964Z,58.80
2018-03-02T12:15:34.990Z,55.50
2018-03-02T12:16:35.020Z,55.40
2018-03-02T12:17:35.054Z,61.60
2018-03-02T12:18:35.071Z,60.70
2018-03-02T12:19:35.103Z,57.50
2018-03-02T12:20:35.132Z,59.10
2018-03-02T12:21:35.157Z,61.50
2018-03-02T12:22:35.256Z,56.20
2018-03-02T12:23:35.210Z,58.50
2018-03-02T12:24:35.240Z,60.60
2018-03-02T12:25:35.274Z,61.20
2018-03-02T12:26:35.297Z,57.50
2018-03-02T12:27:35.322Z,57.80
2018-03-02T12:28:35.376Z,57.60
2018-03-02T12:29:35.480Z,57.90
2018-03-02T12:30:35.402Z,61.20
2018-03-02T12:31:35.431Z,59.50
2018-03-02T12:32:35.458Z,61.20
2018-03-02T12:33:35.484Z,58.40
2018-03-02T12:34:35.511Z,55.00
2018-03-02T12:35:35.542Z,56.50
2018-03-02T12:36:35.622Z,60.00
2018-03-02T12:37:35.595Z,57.90
2018-03-02T12:38:35.625Z,58.30
2018-03-02T12:39:35.704Z,54.90
2018-03-02T12:40:35.676Z,58.90
2018-03-02T12:41:35.734Z,54.50
2018-03-02T12:42:35.735Z,56.90
2018-03-02T12:43:35.763Z,58.50
2018-03-02T12:44:35.846Z,60.10
2018-03-02T12:45:35.814Z,57.60
2018-03-02T12:46:35.900Z,59.40
2018-03-02T12:47:35.878Z,62.00
2018-03-02T12:48:35.899Z,59.20
2018-03-02T12:49:35.929Z,57.60
2018-03-02T12:50:35.954Z,63.00
2018-03-02T12:51:35.982Z,61.20
2018-03-02T12:52:36.017Z,62.30